createdAt,value
2023-01-07T00:00:43.420Z,59.26
2023-01-07T00:05:46.103Z,59.09
2023-01-07T00:10:48.177Z,59.14
2023-01-07T00:15:50.340Z,58.86
2023-01-07T00:20:52.932Z,59.09
2023-01-07T00:26:07.291Z,58.88
2023-01-07T00:31:16.847Z,59.34
2023-01-07T00:36:20.042Z,58.67
2023-01-07T00:41:22.610Z,59.54
2023-01-07T00:46:25.076Z,59.32
2023-01-07T00:51:27.274Z,59.30
2023-01-07T00:56:30.180Z,59.22
2023-01-07T01:01:32.381Z,58.78
2023-01-07T01:06:34.734Z,59.21
2023-01-07T01:11:36.907Z,58.91
2023-01-07T01:16:39.189Z,59.11
2023-01-07T01:21:41.763Z,59.37
2023-01-07T01:26:43.896Z,59.44
2023-01-07T01:31:46.140Z,59.51
2023-01-07T01:36:48.411Z,59.32
2023-01-07T01:41:50.827Z,59.45
2023-01-07T01:46:53.219Z,59.50
2023-01-07T01:52:17.156Z,59.25
2023-01-07T01:57:21.433Z,59.09
2023-01-07T02:02:32.903Z,59.45
2023-01-07T02:07:35.240Z,59.49
2023-01-07T02:12:52.525Z,59.14
2023-01-07T02:18:15.820Z,60.00
2023-01-07T02:23:27.869Z,59.55
2023-01-07T02:29:05.105Z,59.55
2023-01-07T02:34:25.476Z,59.71
2023-01-07T02:39:46.129Z,60.00
2023-01-07T02:44:59.962Z,60.56
2023-01-07T02:50:02.107Z,60.13
2023-01-07T02:55:16.092Z,58.75
2023-01-07T03:00:55.603Z,58.25
2023-01-07T03:06:14.495Z,58.05
2023-01-07T03:11:20.082Z,57.84
2023-01-07T03:16:34.519Z,57.78
2023-01-07T03:21:37.772Z,57.71
2023-01-07T03:26:46.724Z,57.65
2023-01-07T03:31:58.647Z,57.61
2023-01-07T03:37:08.366Z,57.52
2023-01-07T03:42:30.550Z,57.77
2023-01-07T03:47:32.939Z,57.34
2023-01-07T03:52:35.066Z,57.54
2023-01-07T03:57:37.908Z,57.94
2023-01-07T04:02:40.138Z,57.52
2023-01-07T04:07:42.496Z,58.03
2023-01-07T04:12:44.604Z,58.15
2023-01-07T04:17:46.883Z,58.26
2023-01-07T04:22:49.044Z,57.95
2023-01-07T04:27:51.217Z,57.94
2023-01-07T04:32:53.304Z,57.72
2023-01-07T04:37:55.431Z,57.95
2023-01-07T04:42:57.600Z,57.47
2023-01-07T04:47:59.793Z,57.98
2023-01-07T04:53:01.916Z,58.30
2023-01-07T04:58:04.056Z,57.94
2023-01-07T05:03:06.525Z,57.72
2023-01-07T05:08:08.689Z,57.83
2023-01-07T05:13:17.993Z,57.68
2023-01-07T05:18:20.338Z,57.58
2023-01-07T05:23:22.488Z,57.74
2023-01-07T05:28:24.644Z,58.01
2023-01-07T05:33:26.803Z,57.87
2023-01-07T05:38:29.180Z,58.41
2023-01-07T05:43:31.541Z,59.28
2023-01-07T05:48:33.753Z,58.80
2023-01-07T05:53:35.976Z,58.24
2023-01-07T05:58:38.172Z,58.16
2023-01-07T06:03:41.156Z,57.54
2023-01-07T06:08:43.326Z,57.67
2023-01-07T06:13:45.479Z,57.31
2023-01-07T06:18:47.617Z,57.00
2023-01-07T06:23:49.875Z,58.08
2023-01-07T06:28:52.823Z,58.33
2023-01-07T06:33:55.053Z,58.97
2023-01-07T06:38:57.244Z,60.17
2023-01-07T06:43:59.390Z,60.13
2023-01-07T06:49:01.628Z,61.34
2023-01-07T06:54:03.877Z,63.80
2023-01-07T06:59:06.013Z,61.22
2023-01-07T07:04:08.104Z,60.27
2023-01-07T07:09:10.171Z,59.76
2023-01-07T07:14:12.245Z,59.79
2023-01-07T07:19:14.461Z,58.92
2023-01-07T07:24:16.599Z,58.43
2023-01-07T07:29:20.542Z,58.54
2023-01-07T07:34:23.988Z,57.82
2023-01-07T07:39:26.070Z,58.05
2023-01-07T07:44:28.117Z,58.00
2023-01-07T07:49:30.439Z,57.71
2023-01-07T07:54:32.624Z,57.40
2023-01-07T07:59:34.799Z,58.11
2023-01-07T08:04:36.987Z,57.70
2023-01-07T08:09:39.456Z,57.29
2023-01-07T08:14:43.772Z,57.12
2023-01-07T08:19:46.191Z,56.40
2023-01-07T08:24:48.324Z,55.94
2023-01-07T08:29:50.516Z,55.94
2023-01-07T08:40:19.095Z,55.45
2023-01-07T08:45:21.220Z,55.16
2023-01-07T08:50:26.946Z,54.46
2023-01-07T08:55:29.134Z,54.44
2023-01-07T09:00:31.434Z,53.87
2023-01-07T09:05:35.288Z,54.02
2023-01-07T09:10:37.559Z,53.48
2023-01-07T09:15:39.808Z,52.42
2023-01-07T09:20:42.014Z,52.06
2023-01-07T09:25:44.592Z,51.57
2023-01-07T09:30:46.997Z,51.72
2023-01-07T09:35:49.231Z,51.59
2023-01-07T09:40:52.208Z,51.10
2023-01-07T09:45:58.027Z,50.83
2023-01-07T09:51:22.833Z,50.28
2023-01-07T09:56:28.398Z,50.41
2023-01-07T10:01:51.791Z,50.26
2023-01-07T10:07:14.786Z,49.66
2023-01-07T10:13:01.945Z,50.07
2023-01-07T10:18:26.914Z,48.73
2023-01-07T10:23:33.237Z,48.10
2023-01-07T10:28:44.980Z,47.67
2023-01-07T10:33:49.279Z,47.59
2023-01-07T10:39:11.561Z,47.43
2023-01-07T10:44:45.655Z,46.44
2023-01-07T10:50:00.720Z,46.34
2023-01-07T10:55:31.308Z,44.35
2023-01-07T11:00:33.778Z,44.47
2023-01-07T11:05:38.409Z,43.90
2023-01-07T11:10:40.903Z,43.85
2023-01-07T11:15:49.657Z,44.38
2023-01-07T11:20:54.079Z,43.08
2023-01-07T11:26:12.480Z,43.08
2023-01-07T11:31:14.725Z,43.22
2023-01-07T11:36:17.357Z,42.66
2023-01-07T11:41:26.039Z,43.38
2023-01-07T11:46:31.845Z,43.19
2023-01-07T11:51:41.278Z,41.92
2023-01-07T11:56:43.473Z,42.23
2023-01-07T12:01:59.278Z,41.82
2023-01-07T12:07:14.343Z,41.44
2023-01-07T12:12:39.615Z,40.63
2023-01-07T12:17:47.336Z,40.50
2023-01-07T12:23:20.654Z,40.51
2023-01-07T12:29:03.959Z,39.36
2023-01-07T12:34:16.453Z,38.96
2023-01-07T12:39:28.744Z,39.06
2023-01-07T12:44:32.132Z,39.46
2023-01-07T12:49:47.889Z,38.75
2023-01-07T12:55:02.121Z,38.39
2023-01-07T13:00:27.050Z,39.41
2023-01-07T13:05:39.618Z,38.62
2023-01-07T13:11:04.546Z,37.93
2023-01-07T13:16:11.194Z,37.58
2023-01-07T13:21:16.376Z,36.59
2023-01-07T13:26:26.462Z,36.36
2023-01-07T13:31:38.012Z,37.20
2023-01-07T13:37:10.937Z,37.50
2023-01-07T13:42:41.674Z,37.42
2023-01-07T13:47:48.627Z,37.42
2023-01-07T13:53:26.074Z,37.88
2023-01-07T13:58:30.986Z,37.78
2023-01-07T14:03:48.608Z,37.77
2023-01-07T14:09:14.047Z,37.39
2023-01-07T14:14:46.121Z,36.74
2023-01-07T14:19:56.841Z,36.35
2023-01-07T14:25:33.961Z,35.74
2023-01-07T14:30:51.020Z,35.82
2023-01-07T14:36:05.844Z,35.21
2023-01-07T14:41:09.930Z,34.86
2023-01-07T14:46:24.321Z,34.42
2023-01-07T14:51:46.825Z,34.13
2023-01-07T14:57:14.853Z,33.79
2023-01-07T15:02:44.837Z,34.02
2023-01-07T15:08:18.083Z,34.22
2023-01-07T15:13:40.372Z,35.02
2023-01-07T15:18:48.271Z,36.12
2023-01-07T15:24:15.149Z,37.09
2023-01-07T15:29:22.741Z,37.92
2023-01-07T15:34:30.098Z,38.93
2023-01-07T15:39:45.556Z,39.25
2023-01-07T15:44:55.307Z,39.81
2023-01-07T15:49:57.435Z,40.61
2023-01-07T15:55:15.545Z,41.17
2023-01-07T16:00:19.986Z,41.62
2023-01-07T16:05:22.336Z,42.49
2023-01-07T16:10:30.066Z,42.63
2023-01-07T16:15:35.356Z,43.65
2023-01-07T16:20:41.352Z,43.98
2023-01-07T16:25:53.805Z,44.54
2023-01-07T16:30:57.573Z,44.86
2023-01-07T16:36:05.093Z,45.05
2023-01-07T16:41:07.819Z,45.13
2023-01-07T16:46:22.005Z,45.58
2023-01-07T16:51:47.029Z,46.17
2023-01-07T16:56:52.914Z,45.89
2023-01-07T17:01:57.114Z,46.07
2023-01-07T17:07:01.750Z,46.79
2023-01-07T17:12:05.224Z,46.91
2023-01-07T17:17:31.997Z,47.20
2023-01-07T17:22:38.735Z,47.27
2023-01-07T17:27:55.482Z,47.73
2023-01-07T17:32:59.043Z,47.42
2023-01-07T17:38:01.288Z,47.77
2023-01-07T17:43:22.123Z,47.84
2023-01-07T17:48:24.443Z,47.96
2023-01-07T17:53:32.131Z,48.29
2023-01-07T17:58:38.426Z,48.49
2023-01-07T18:03:41.684Z,49.23
2023-01-07T18:08:45.262Z,48.73
2023-01-07T18:13:47.515Z,49.10
2023-01-07T18:18:50.018Z,49.57
2023-01-07T18:23:52.404Z,49.12
2023-01-07T18:28:54.792Z,49.03
2023-01-07T18:33:56.950Z,49.63
2023-01-07T18:38:59.179Z,49.86
2023-01-07T18:44:01.661Z,50.29
2023-01-07T18:49:03.898Z,50.43
2023-01-07T18:54:07.493Z,50.30
2023-01-07T18:59:09.873Z,49.67
2023-01-07T19:04:12.250Z,50.07
2023-01-07T19:09:14.512Z,50.00
2023-01-07T19:14:16.646Z,50.33
2023-01-07T19:19:18.930Z,50.28
2023-01-07T19:24:21.677Z,50.33
2023-01-07T19:29:23.935Z,50.48
2023-01-07T19:34:26.385Z,50.86
2023-01-07T19:39:28.783Z,50.90
2023-01-07T19:44:31.066Z,50.40
2023-01-07T19:49:36.296Z,50.54
2023-01-07T19:54:38.580Z,50.13
2023-01-07T19:59:40.734Z,50.71
2023-01-07T20:04:43.396Z,51.38
2023-01-07T20:09:45.686Z,51.68
2023-01-07T20:14:48.157Z,51.04
2023-01-07T20:19:53.145Z,51.02
2023-01-07T20:24:55.432Z,51.81
2023-01-07T20:29:57.645Z,51.92
2023-01-07T20:34:59.912Z,52.13
2023-01-07T20:40:02.263Z,52.23
2023-01-07T20:45:04.775Z,52.05
2023-01-07T20:50:08.779Z,52.22
2023-01-07T20:55:10.995Z,51.62
2023-01-07T21:00:13.994Z,51.88
2023-01-07T21:05:20.572Z,51.17
2023-01-07T21:10:22.915Z,51.12
2023-01-07T21:15:25.214Z,50.80
2023-01-07T21:20:27.677Z,50.61
2023-01-07T21:25:32.375Z,50.77
2023-01-07T21:30:34.713Z,51.04
2023-01-07T21:35:41.821Z,50.79
2023-01-07T21:40:44.579Z,50.83
2023-01-07T21:45:47.050Z,51.21
2023-01-07T21:50:49.372Z,51.49
2023-01-07T21:55:51.615Z,52.36
2023-01-07T22:00:54.168Z,52.65
2023-01-07T22:06:01.528Z,52.64
2023-01-07T22:11:03.741Z,52.62
2023-01-07T22:16:06.465Z,52.71
2023-01-07T22:21:08.730Z,52.71
2023-01-07T22:26:11.130Z,52.08
2023-01-07T22:31:20.313Z,52.05
2023-01-07T22:36:28.352Z,51.99
2023-01-07T22:41:33.543Z,53.14
2023-01-07T22:46:38.840Z,53.67
2023-01-07T22:51:47.111Z,53.53
2023-01-07T22:56:50.351Z,53.86
2023-01-07T23:01:52.546Z,53.42
2023-01-07T23:06:54.746Z,53.85
2023-01-07T23:12:00.934Z,53.33
2023-01-07T23:17:03.450Z,53.84
2023-01-07T23:22:05.637Z,53.87
2023-01-07T23:27:08.022Z,53.96
2023-01-07T23:32:12.883Z,53.43
2023-01-07T23:37:15.077Z,53.63
2023-01-07T23:42:17.217Z,53.65
2023-01-07T23:47:19.354Z,53.66
2023-01-07T23:52:21.543Z,53.72
2023-01-07T23:57:23.721Z,53.78
